Time;durP1;ratioP1;P1;durP2;ratioP2;P2;SDS_P1;SDS_P2;PMS_P1;PMS_P2;Temp;Humidity;BMP_temperature;BMP_pressure;BME280_temperature;BME280_humidity;BME280_pressure;Samples;Min_cycle;Max_cycle;Signal;HPM_P1;HPM_P2
2022/09/13 00:01:08;;;;;;;5.80;5.28;;;19.30;91.90;;;;;;5035556;28;20477;-58
2022/09/13 00:03:34;;;;;;;5.10;4.60;;;19.30;91.90;;;;;;5041404;28;20025;-58
2022/09/13 00:06:17;;;;;;;7.38;6.68;;;19.30;91.80;;;;;;5046252;28;20025;-58
2022/09/13 00:08:42;;;;;;;7.40;6.60;;;19.40;91.80;;;;;;5037728;28;20831;-58
2022/09/13 00:11:15;;;;;;;8.45;7.65;;;19.30;91.90;;;;;;5047939;28;20059;-58
2022/09/13 00:13:41;;;;;;;7.05;6.43;;;19.20;92.10;;;;;;5034559;28;20017;-58
2022/09/13 00:16:11;;;;;;;6.63;5.63;;;19.20;92.30;;;;;;5039569;28;20393;-58
2022/09/13 00:18:37;;;;;;;5.43;4.93;;;19.20;92.40;;;;;;5038974;28;20049;-58
2022/09/13 00:21:04;;;;;;;5.05;4.55;;;19.20;92.60;;;;;;5041742;28;20030;-58
2022/09/13 00:23:30;;;;;;;5.63;4.65;;;19.20;92.70;;;;;;5044984;28;20029;-58
2022/09/13 00:26:23;;;;;;;5.47;4.97;;;19.30;92.80;;;;;;5048081;28;20028;-58
2022/09/13 00:28:59;;;;;;;5.20;4.72;;;19.30;92.60;;;;;;5042138;28;20045;-58
2022/09/13 00:31:26;;;;;;;6.80;6.15;;;19.30;92.70;;;;;;5058879;28;20028;-58
2022/09/13 00:33:52;;;;;;;8.85;7.28;;;19.20;92.70;;;;;;5044198;28;20020;-58
2022/09/13 00:36:40;;;;;;;7.20;6.50;;;19.20;92.80;;;;;;5057396;28;20013;-59
2022/09/13 00:39:06;;;;;;;8.17;6.93;;;19.20;92.80;;;;;;5059614;28;20071;-58
2022/09/13 00:41:42;;;;;;;7.47;6.70;;;19.10;92.90;;;;;;5052194;28;20029;-58
2022/09/13 00:44:47;;;;;;;8.25;7.45;;;19.10;93.00;;;;;;5050373;28;20082;-58
2022/09/13 00:47:16;;;;;;;9.13;8.23;;;19.10;92.90;;;;;;5038334;28;20071;-58
2022/09/13 00:49:44;;;;;;;8.65;7.82;;;19.00;93.40;;;;;;5042654;28;20030;-58
2022/09/13 00:52:19;;;;;;;8.68;7.82;;;19.00;93.20;;;;;;5056645;28;20037;-58
2022/09/13 00:54:50;;;;;;;8.75;7.90;;;19.00;93.30;;;;;;5040423;28;20028;-58
2022/09/13 00:57:26;;;;;;;8.57;7.78;;;19.00;93.40;;;;;;5047041;28;20025;-58
2022/09/13 01:00:10;;;;;;;10.23;7.45;;;19.00;93.40;;;;;;5049088;28;20043;-58
2022/09/13 01:02:37;;;;;;;8.05;7.15;;;19.00;93.50;;;;;;5040181;28;20025;-58
2022/09/13 01:05:03;;;;;;;8.40;7.38;;;18.90;93.50;;;;;;5047394;28;20032;-58
2022/09/13 01:07:29;;;;;;;8.20;7.20;;;19.00;93.50;;;;;;5054518;28;20040;-58
2022/09/13 01:09:54;;;;;;;7.30;6.60;;;18.90;93.40;;;;;;5042994;28;20028;-58
2022/09/13 01:12:47;;;;;;;7.30;6.53;;;18.90;93.30;;;;;;5044707;28;20025;-58
2022/09/13 01:15:12;;;;;;;6.35;5.72;;;19.00;93.10;;;;;;5044484;28;20098;-58
2022/09/13 01:17:38;;;;;;;5.38;4.88;;;19.00;93.10;;;;;;5045168;28;20528;-58
2022/09/13 01:20:06;;;;;;;6.63;4.97;;;19.10;93.10;;;;;;5050929;28;20029;-58
2022/09/13 01:22:41;;;;;;;6.32;5.43;;;19.10;93.00;;;;;;5044219;28;20121;-58
2022/09/13 01:25:30;;;;;;;6.72;5.53;;;19.10;93.00;;;;;;5045348;28;20064;-58
2022/09/13 01:28:08;;;;;;;;;;;19.20;93.10;;;;;;5042967;28;20084;-58
2022/09/13 01:30:41;;;;;;;5.07;4.60;;;19.10;93.10;;;;;;5040167;28;19912;-58
2022/09/13 01:33:24;;;;;;;9.57;7.85;;;19.10;93.30;;;;;;5040723;28;20051;-58
2022/09/13 01:36:11;;;;;;;9.35;8.45;;;19.10;93.40;;;;;;5044837;28;20440;-58
2022/09/13 01:38:48;;;;;;;10.75;8.75;;;19.00;93.60;;;;;;5047150;28;20021;-58
2022/09/13 01:41:31;;;;;;;8.00;7.20;;;18.90;94.00;;;;;;5049976;28;20116;-58
2022/09/13 01:44:03;;;;;;;7.00;6.25;;;18.80;94.10;;;;;;5040644;28;20032;-58
2022/09/13 01:46:48;;;;;;;6.47;5.85;;;18.80;94.10;;;;;;5063055;28;20043;-58
2022/09/13 01:49:18;;;;;;;5.40;4.90;;;18.90;93.90;;;;;;5050357;28;20024;-58
2022/09/13 01:51:58;;;;;;;7.50;5.35;;;19.00;93.90;;;;;;5043066;28;20029;-58
2022/09/13 01:54:47;;;;;;;5.40;4.68;;;19.00;93.60;;;;;;5042035;28;20029;-58
2022/09/13 01:57:18;;;;;;;;;;;19.10;93.50;;;;;;5042920;28;20028;-58
2022/09/13 01:59:54;;;;;;;5.30;4.30;;;19.10;93.50;;;;;;5045525;28;19905;-58
2022/09/13 02:02:30;;;;;;;7.40;5.15;;;19.00;93.50;;;;;;5038583;28;20033;-58
2022/09/13 02:05:11;;;;;;;9.38;8.38;;;19.10;93.50;;;;;;5047874;28;20543;-58
2022/09/13 02:07:52;;;;;;;8.48;7.68;;;19.00;93.90;;;;;;5043035;28;20378;-58
2022/09/13 02:10:26;;;;;;;10.50;8.52;;;18.80;94.40;;;;;;5048968;28;20025;-58
2022/09/13 02:12:54;;;;;;;9.18;8.18;;;18.70;94.60;;;;;;5042141;28;20021;-58
2022/09/13 02:15:24;;;;;;;7.97;6.82;;;18.70;94.80;;;;;;5047179;28;20036;-59
2022/09/13 02:18:01;;;;;;;7.80;6.65;;;18.70;94.60;;;;;;5042664;28;20029;-58
2022/09/13 02:20:34;;;;;;;8.30;7.32;;;18.80;94.50;;;;;;5049504;28;20032;-58
2022/09/13 02:23:12;;;;;;;8.02;7.00;;;18.80;94.30;;;;;;5040514;28;20047;-58
2022/09/13 02:25:39;;;;;;;7.88;6.05;;;18.80;94.20;;;;;;5063184;28;20014;-58
2022/09/13 02:28:33;;;;;;;5.90;5.30;;;18.80;94.10;;;;;;5042258;28;20017;-57
2022/09/13 02:31:03;;;;;;;5.38;4.82;;;18.90;93.90;;;;;;5045581;28;20032;-58
2022/09/13 02:33:34;;;;;;;5.90;5.30;;;18.90;93.80;;;;;;5042749;28;20495;-58
2022/09/13 02:36:08;;;;;;;7.28;5.25;;;18.90;93.70;;;;;;5043286;28;20452;-58
2022/09/13 02:38:54;;;;;;;5.80;4.43;;;19.00;93.60;;;;;;5041723;28;20122;-58
2022/09/13 02:41:38;;;;;;;5.78;5.18;;;19.00;93.50;;;;;;5039095;28;20068;-58
2022/09/13 02:44:27;;;;;;;5.07;4.57;;;19.10;93.50;;;;;;5042976;28;20614;-58
2022/09/13 02:47:15;;;;;;;5.03;4.53;;;19.10;93.40;;;;;;5040720;28;20025;-58
2022/09/13 02:50:06;;;;;;;6.80;5.03;;;19.10;93.40;;;;;;5062127;28;20119;-58
2022/09/13 02:52:49;;;;;;;6.50;5.90;;;19.00;93.60;;;;;;5041345;28;20790;-58
2022/09/13 02:55:20;;;;;;;6.10;5.00;;;18.90;94.10;;;;;;5038824;28;20083;-58
2022/09/13 02:57:52;;;;;;;5.78;5.20;;;18.90;94.40;;;;;;5045007;28;20763;-58
2022/09/13 03:00:18;;;;;;;5.10;4.70;;;18.90;94.50;;;;;;5045403;28;20107;-58
2022/09/13 03:02:45;;;;;;;6.05;5.45;;;18.90;94.40;;;;;;5045365;28;20108;-58
2022/09/13 03:05:11;;;;;;;6.97;5.45;;;18.90;94.30;;;;;;5053700;28;20017;-58
2022/09/13 03:07:49;;;;;;;5.53;5.03;;;19.00;94.20;;;;;;5046446;28;20598;-58
2022/09/13 03:10:26;;;;;;;5.78;4.93;;;19.00;94.10;;;;;;5035619;28;20079;-58
2022/09/13 03:13:23;;;;;;;7.13;4.85;;;19.10;93.90;;;;;;5040478;28;20021;-59
2022/09/13 03:16:03;;;;;;;5.72;5.20;;;19.10;93.80;;;;;;5035771;28;20072;-58
2022/09/13 03:18:51;;;;;;;5.43;4.93;;;19.00;93.70;;;;;;5047051;28;20380;-58
2022/09/13 03:21:42;;;;;;;5.75;4.75;;;19.00;93.80;;;;;;5034227;28;20030;-58
2022/09/13 03:24:30;;;;;;;6.10;5.20;;;19.10;93.70;;;;;;5040032;28;20535;-58
2022/09/13 03:27:10;;;;;;;6.75;5.30;;;19.10;93.60;;;;;;5052914;28;20028;-58
2022/09/13 03:29:54;;;;;;;6.05;5.22;;;19.10;93.70;;;;;;5037658;28;20021;-58
2022/09/13 03:32:23;;;;;;;5.97;5.38;;;19.10;93.60;;;;;;5044458;28;20032;-58
2022/09/13 03:35:06;;;;;;;5.70;5.13;;;19.10;93.70;;;;;;5035367;28;20021;-58
2022/09/13 03:37:50;;;;;;;6.03;5.10;;;19.10;93.70;;;;;;5039345;28;20021;-58
2022/09/13 03:40:33;;;;;;;5.90;5.30;;;19.00;93.60;;;;;;5063427;28;20044;-58
2022/09/13 03:43:34;;;;;;;6.32;5.03;;;19.00;93.70;;;;;;5047754;28;20036;-59
2022/09/13 03:46:07;;;;;;;5.78;4.72;;;19.10;93.60;;;;;;5041260;28;20050;-58
2022/09/13 03:48:39;;;;;;;5.82;5.03;;;19.00;93.70;;;;;;5043440;28;20018;-58
2022/09/13 03:51:19;;;;;;;7.43;5.80;;;19.00;93.70;;;;;;5053067;28;20032;-58
2022/09/13 03:53:56;;;;;;;6.47;5.00;;;19.00;93.70;;;;;;5039185;28;20056;-58
2022/09/13 03:56:29;;;;;;;5.82;5.20;;;19.00;93.90;;;;;;5044413;28;20053;-58
2022/09/13 03:58:59;;;;;;;7.05;5.80;;;18.90;93.90;;;;;;5039092;28;20025;-58
2022/09/13 04:01:34;;;;;;;5.53;5.03;;;18.90;94.00;;;;;;5041156;28;20068;-58
2022/09/13 04:04:00;;;;;;;5.53;5.00;;;18.90;94.10;;;;;;5040102;28;20017;-58
2022/09/13 04:06:28;;;;;;;6.88;5.45;;;18.90;94.10;;;;;;5035740;28;20100;-58
2022/09/13 04:09:06;;;;;;;5.70;5.10;;;18.90;94.10;;;;;;5046908;28;20045;-58
2022/09/13 04:11:31;;;;;;;7.00;5.32;;;18.80;94.10;;;;;;5040408;28;20078;-58
2022/09/13 04:13:58;;;;;;;9.52;8.00;;;18.80;94.20;;;;;;5039093;28;20501;-58
2022/09/13 04:16:23;;;;;;;8.57;7.68;;;18.80;94.50;;;;;;5035798;28;20022;-58
2022/09/13 04:18:49;;;;;;;7.03;6.28;;;18.60;94.90;;;;;;5040712;28;20371;-58
2022/09/13 04:21:15;;;;;;;6.30;5.70;;;18.60;95.20;;;;;;5040862;28;20536;-58
2022/09/13 04:23:41;;;;;;;8.10;6.53;;;18.60;95.40;;;;;;5041570;28;20068;-58
2022/09/13 04:26:06;;;;;;;7.00;5.45;;;18.50;95.60;;;;;;5045575;28;20416;-58
2022/09/13 04:28:32;;;;;;;6.20;5.60;;;18.50;95.80;;;;;;5057290;28;20049;-58
2022/09/13 04:30:57;;;;;;;8.82;6.57;;;18.50;95.90;;;;;;5040624;28;20035;-58
2022/09/13 04:33:23;;;;;;;6.65;5.80;;;18.50;95.90;;;;;;5048360;28;20064;-58
2022/09/13 04:36:09;;;;;;;;;;;;;;;;;;;;;
2022/09/13 04:38:42;;;;;;;8.60;7.45;;;18.40;96.00;;;;;;5042692;28;20465;-58
2022/09/13 04:41:25;;;;;;;8.80;7.93;;;18.30;96.30;;;;;;5028172;28;20076;-58
2022/09/13 04:43:51;;;;;;;7.82;7.07;;;18.30;96.50;;;;;;5030968;28;20064;-57
2022/09/13 04:46:52;;;;;;;7.90;7.10;;;18.30;96.50;;;;;;5037633;28;20566;-58
2022/09/13 04:49:18;;;;;;;9.27;6.82;;;18.30;96.40;;;;;;5041906;28;20028;-58
2022/09/13 04:52:04;;;;;;;7.85;6.45;;;18.30;96.50;;;;;;5044675;28;20432;-58
2022/09/13 04:54:30;;;;;;;7.10;5.90;;;18.40;96.30;;;;;;5044619;28;20037;-58
2022/09/13 04:56:55;;;;;;;8.48;5.68;;;18.40;96.40;;;;;;5042771;28;20036;-58
2022/09/13 04:59:21;;;;;;;8.23;5.80;;;18.40;96.30;;;;;;5051136;28;20029;-58
2022/09/13 05:01:46;;;;;;;6.63;5.82;;;18.40;96.30;;;;;;5051799;28;20087;-58
2022/09/13 05:04:12;;;;;;;7.00;5.65;;;18.50;96.30;;;;;;5049731;28;20397;-58
2022/09/13 05:06:40;;;;;;;6.65;5.30;;;18.50;96.20;;;;;;5050497;28;20423;-58
2022/09/13 05:09:06;;;;;;;5.77;5.17;;;18.50;96.20;;;;;;5054619;28;20568;-58
2022/09/13 05:11:32;;;;;;;7.22;5.72;;;18.60;96.20;;;;;;5054382;28;20107;-58
2022/09/13 05:14:05;;;;;;;7.50;6.15;;;18.60;96.20;;;;;;5055386;28;20017;-59
2022/09/13 05:16:32;;;;;;;6.53;5.68;;;18.60;96.20;;;;;;5050798;28;20384;-58
2022/09/13 05:18:58;;;;;;;6.68;6.03;;;18.60;96.20;;;;;;5054925;28;20009;-58
2022/09/13 05:21:31;;;;;;;8.82;5.70;;;18.60;96.20;;;;;;5070591;28;20455;-59
2022/09/13 05:23:58;;;;;;;8.05;6.45;;;18.60;96.20;;;;;;5042027;28;20048;-58
2022/09/13 05:29:18;;;;;;;6.88;6.05;;;18.60;96.30;;;;;;5054748;28;20477;-58
2022/09/13 05:31:52;;;;;;;8.13;6.82;;;18.70;96.30;;;;;;5054891;28;20119;-58
2022/09/13 05:34:27;;;;;;;7.80;6.88;;;18.70;96.30;;;;;;5054939;28;20536;-58
2022/09/13 05:36:53;;;;;;;8.25;7.35;;;18.60;96.20;;;;;;5055100;28;20059;-58
2022/09/13 05:39:21;;;;;;;8.45;7.05;;;18.60;96.40;;;;;;5046148;28;20076;-58
2022/09/13 05:41:47;;;;;;;10.98;8.18;;;18.60;96.50;;;;;;5054755;28;20515;-58
2022/09/13 05:44:13;;;;;;;9.32;8.30;;;18.60;96.60;;;;;;5053329;28;20036;-58
2022/09/13 05:46:38;;;;;;;9.43;7.93;;;18.50;96.70;;;;;;5053308;28;20017;-58
2022/09/13 05:49:04;;;;;;;10.52;7.40;;;18.40;96.80;;;;;;5053501;28;20060;-58
2022/09/13 05:51:31;;;;;;;9.60;7.85;;;18.50;96.80;;;;;;5052058;28;20028;-59
2022/09/13 05:53:57;;;;;;;9.20;6.75;;;18.50;96.80;;;;;;5053168;28;20016;-58
2022/09/13 05:56:33;;;;;;;8.48;6.78;;;18.50;96.70;;;;;;5053406;28;20031;-58
2022/09/13 05:59:09;;;;;;;8.27;7.32;;;18.60;96.60;;;;;;5053125;28;20416;-58
2022/09/13 06:01:35;;;;;;;9.75;8.15;;;18.70;96.60;;;;;;5051335;28;20430;-58
2022/09/13 06:04:11;;;;;;;8.30;7.10;;;18.70;96.50;;;;;;5054606;28;20025;-58
2022/09/13 06:06:36;;;;;;;8.77;7.32;;;18.70;96.50;;;;;;5054258;28;20025;-59
2022/09/13 06:09:05;;;;;;;9.48;6.93;;;18.70;96.40;;;;;;5053079;28;20029;-58
2022/09/13 06:11:30;;;;;;;7.38;6.20;;;18.80;96.40;;;;;;5052765;28;20021;-58
2022/09/13 06:13:56;;;;;;;7.57;6.78;;;18.80;96.40;;;;;;5047725;28;20021;-58
2022/09/13 06:16:22;;;;;;;7.13;6.38;;;18.80;96.40;;;;;;5053012;28;20025;-58
2022/09/13 06:19:05;;;;;;;7.57;6.78;;;18.90;96.30;;;;;;5039491;28;20021;-58
2022/09/13 06:21:41;;;;;;;9.02;6.95;;;18.90;96.30;;;;;;5042401;28;20021;-58
2022/09/13 06:24:06;;;;;;;7.57;6.35;;;19.00;96.20;;;;;;5043582;28;20104;-58
2022/09/13 06:26:40;;;;;;;7.25;6.47;;;19.00;96.20;;;;;;5051152;28;20154;-58
2022/09/13 06:29:06;;;;;;;7.60;6.80;;;19.10;96.20;;;;;;5034809;28;20469;-58
2022/09/13 06:31:31;;;;;;;9.32;6.78;;;19.10;96.10;;;;;;5046175;28;20028;-58
2022/09/13 06:34:10;;;;;;;8.05;7.07;;;19.20;96.10;;;;;;5052616;28;20028;-58
2022/09/13 06:36:36;;;;;;;8.38;7.43;;;19.20;96.10;;;;;;5052021;28;20052;-58
2022/09/13 06:39:22;;;;;;;7.65;6.90;;;19.20;96.10;;;;;;5051372;28;20086;-58
2022/09/13 06:42:00;;;;;;;8.23;6.85;;;19.30;96.10;;;;;;5052580;28;20120;-58
2022/09/13 06:44:25;;;;;;;9.48;7.55;;;19.30;96.10;;;;;;5049644;28;20021;-58
2022/09/13 06:46:56;;;;;;;10.25;7.97;;;19.30;96.10;;;;;;5051948;28;20017;-59
2022/09/13 06:49:25;;;;;;;9.80;8.20;;;19.40;96.10;;;;;;5051608;28;20044;-58
2022/09/13 06:51:56;;;;;;;8.30;7.43;;;19.40;96.10;;;;;;5050172;28;20021;-58
2022/09/13 06:54:23;;;;;;;10.48;7.85;;;19.50;96.10;;;;;;5041800;28;20048;-57
2022/09/13 06:56:52;;;;;;;10.57;8.27;;;19.50;96.10;;;;;;5048106;28;20070;-58
2022/09/13 06:59:17;;;;;;;8.23;7.45;;;19.60;96.10;;;;;;5053354;28;20024;-58
2022/09/13 07:01:43;;;;;;;10.60;7.75;;;19.60;96.00;;;;;;5047247;28;20025;-58
2022/09/13 07:04:11;;;;;;;9.32;7.95;;;19.60;96.00;;;;;;5053402;28;20021;-59
2022/09/13 07:06:53;;;;;;;8.57;7.72;;;19.70;96.00;;;;;;5049180;28;20065;-58
2022/09/13 07:09:21;;;;;;;9.85;8.80;;;19.70;96.00;;;;;;5046367;28;20027;-58
2022/09/13 07:11:48;;;;;;;10.63;9.38;;;19.80;96.20;;;;;;5042640;28;20116;-58
2022/09/13 07:14:27;;;;;;;10.98;9.02;;;19.90;95.90;;;;;;5050711;28;20018;-58
2022/09/13 07:16:53;;;;;;;;;;;20.00;95.80;;;;;;5040381;28;20537;-58
2022/09/13 07:19:21;;;;;;;12.32;8.38;;;20.00;95.80;;;;;;5047062;28;20007;-58
2022/09/13 07:21:48;;;;;;;10.82;9.70;;;20.00;95.90;;;;;;5040906;28;20033;-58
2022/09/13 07:24:15;;;;;;;12.25;9.50;;;20.10;95.80;;;;;;5046971;28;20028;-58
2022/09/13 07:26:40;;;;;;;13.68;11.38;;;20.20;95.80;;;;;;5050838;28;20075;-57
2022/09/13 07:29:10;;;;;;;12.75;11.20;;;20.20;95.80;;;;;;5038907;28;20009;-58
2022/09/13 07:31:37;;;;;;;;;;;20.30;95.80;;;;;;5051647;28;20051;-58
2022/09/13 07:34:05;;;;;;;11.02;9.75;;;20.30;95.70;;;;;;5051467;28;20265;-58
2022/09/13 07:36:33;;;;;;;12.80;10.85;;;20.40;95.80;;;;;;5051978;28;20437;-58
2022/09/13 07:39:17;;;;;;;13.80;11.02;;;20.50;95.70;;;;;;5064039;28;20052;-58
2022/09/13 07:41:43;;;;;;;13.82;11.30;;;20.50;95.60;;;;;;5047604;28;21413;-58
2022/09/13 07:44:10;;;;;;;14.32;12.13;;;20.60;95.60;;;;;;5046485;28;20052;-58
2022/09/13 07:46:48;;;;;;;16.48;13.63;;;20.70;95.50;;;;;;5050753;28;20009;-58
2022/09/13 07:49:16;;;;;;;15.30;12.57;;;20.80;95.40;;;;;;5047201;28;20432;-58
2022/09/13 07:51:42;;;;;;;16.30;13.07;;;20.90;95.40;;;;;;5044461;28;20385;-58
2022/09/13 07:54:11;;;;;;;16.30;13.00;;;20.90;95.30;;;;;;5063401;28;20009;-58
2022/09/13 07:56:57;;;;;;;20.10;13.43;;;21.00;95.20;;;;;;5047728;28;20021;-58
2022/09/13 07:59:41;;;;;;;;;;;;;;;;;;;;;
2022/09/13 08:02:13;;;;;;;15.68;12.85;;;21.20;95.10;;;;;;5050626;28;20024;-58
2022/09/13 08:04:38;;;;;;;15.32;12.02;;;21.30;95.10;;;;;;5048272;28;20035;-58
2022/09/13 08:07:04;;;;;;;14.77;12.75;;;21.40;95.00;;;;;;5050949;28;20283;-58
2022/09/13 08:09:42;;;;;;;16.98;13.90;;;21.50;95.00;;;;;;5049214;28;20522;-59
2022/09/13 08:12:07;;;;;;;17.83;12.20;;;21.50;94.90;;;;;;5050279;28;20033;-58
2022/09/13 08:14:33;;;;;;;14.00;11.88;;;21.60;94.90;;;;;;5049692;28;20385;-58
2022/09/13 08:16:58;;;;;;;12.23;9.57;;;21.70;94.80;;;;;;5050695;28;20031;-58
2022/09/13 08:19:24;;;;;;;13.80;10.13;;;21.80;94.80;;;;;;5050552;28;20025;-58
2022/09/13 08:21:49;;;;;;;13.48;10.57;;;21.90;94.70;;;;;;5048733;28;20473;-58
2022/09/13 08:24:20;;;;;;;15.75;12.85;;;22.00;94.70;;;;;;5048841;28;20021;-58
2022/09/13 08:26:46;;;;;;;13.70;11.43;;;22.00;94.70;;;;;;5049552;28;20024;-59
2022/09/13 08:29:26;;;;;;;15.65;12.30;;;22.10;94.70;;;;;;5050861;28;20020;-59
2022/09/13 08:32:01;;;;;;;12.50;10.93;;;22.10;94.70;;;;;;5048843;28;20028;-58
2022/09/13 08:34:27;;;;;;;13.93;11.18;;;22.20;94.70;;;;;;5050481;28;20045;-58
2022/09/13 08:37:00;;;;;;;12.75;9.35;;;22.30;94.70;;;;;;5050699;28;20063;-58
2022/09/13 08:39:26;;;;;;;11.43;9.88;;;22.40;94.60;;;;;;5049079;28;20049;-58
2022/09/13 08:42:00;;;;;;;9.93;8.88;;;22.50;94.50;;;;;;5046643;28;20052;-58
2022/09/13 08:44:46;;;;;;;11.60;8.18;;;22.60;94.40;;;;;;5054373;28;20025;-58
2022/09/13 08:47:31;;;;;;;9.90;8.57;;;22.70;94.20;;;;;;5053479;28;20027;-58
2022/09/13 08:50:09;;;;;;;11.52;9.95;;;22.70;94.10;;;;;;5054942;28;20021;-58
2022/09/13 08:52:58;;;;;;;10.40;7.77;;;22.90;94.00;;;;;;5051828;28;20076;-58
2022/09/13 08:55:46;;;;;;;7.82;6.93;;;23.00;93.90;;;;;;5051645;28;20025;-58
2022/09/13 08:58:36;;;;;;;7.88;7.03;;;23.10;93.70;;;;;;5051262;28;20025;-58
2022/09/13 09:01:07;;;;;;;7.07;6.35;;;23.30;93.50;;;;;;5052792;28;20073;-58
2022/09/13 09:03:35;;;;;;;7.38;6.65;;;23.50;93.40;;;;;;5053219;28;20138;-58
2022/09/13 09:06:01;;;;;;;7.37;6.67;;;23.60;93.20;;;;;;5052933;28;20021;-58
2022/09/13 09:08:45;;;;;;;9.75;8.18;;;23.70;93.00;;;;;;5054230;28;20017;-58
2022/09/13 09:11:27;;;;;;;8.15;7.35;;;23.90;92.70;;;;;;5068048;28;20433;-58
2022/09/13 09:14:32;;;;;;;7.47;6.75;;;23.90;92.60;;;;;;5052709;28;20071;-58
2022/09/13 09:17:09;;;;;;;7.10;6.38;;;24.00;92.40;;;;;;5052735;28;20380;-58
2022/09/13 09:19:39;;;;;;;7.68;6.28;;;24.00;92.40;;;;;;5052211;28;20032;-58
2022/09/13 09:22:29;;;;;;;6.40;5.28;;;24.10;92.20;;;;;;5049608;28;20419;-58
2022/09/13 09:24:55;;;;;;;5.90;5.00;;;24.20;92.00;;;;;;5052984;28;20041;-58
2022/09/13 09:27:22;;;;;;;6.10;4.60;;;24.40;91.90;;;;;;5052490;28;20017;-58
2022/09/13 09:29:53;;;;;;;4.80;4.25;;;24.50;91.80;;;;;;5052909;28;20078;-58
2022/09/13 09:32:34;;;;;;;5.47;4.45;;;24.60;91.60;;;;;;5053961;28;20017;-58
2022/09/13 09:35:22;;;;;;;6.40;4.43;;;24.70;91.30;;;;;;5053762;28;20097;-58
2022/09/13 09:38:30;;;;;;;5.22;4.07;;;24.90;90.90;;;;;;5048637;28;20053;-58
2022/09/13 09:41:00;;;;;;;5.60;4.45;;;25.00;90.80;;;;;;5039843;28;20112;-58
2022/09/13 09:43:32;;;;;;;5.07;4.40;;;25.10;90.60;;;;;;5051371;28;20859;-58
2022/09/13 09:46:01;;;;;;;5.05;4.05;;;25.10;90.50;;;;;;5052134;28;20119;-58
2022/09/13 09:48:31;;;;;;;7.20;4.75;;;25.10;90.50;;;;;;5051852;28;20083;-58
2022/09/13 09:50:58;;;;;;;4.63;4.00;;;25.10;90.60;;;;;;5050858;28;20026;-58
2022/09/13 09:53:28;;;;;;;6.68;4.45;;;25.10;90.50;;;;;;5050123;28;20021;-58
2022/09/13 09:56:21;;;;;;;6.55;4.45;;;25.10;90.40;;;;;;5050141;28;20032;-58
2022/09/13 09:58:47;;;;;;;5.40;3.20;;;25.20;90.30;;;;;;5051406;28;20112;-58
2022/09/13 10:01:34;;;;;;;5.20;3.30;;;25.30;90.30;;;;;;5051260;28;20108;-58
2022/09/13 10:04:09;;;;;;;4.93;3.60;;;25.50;90.00;;;;;;5052713;28;20029;-58
2022/09/13 10:06:37;;;;;;;5.40;3.20;;;25.50;89.60;;;;;;5067700;28;20025;-58
2022/09/13 10:09:13;;;;;;;5.15;3.10;;;25.60;89.00;;;;;;5048327;28;20105;-58
2022/09/13 10:11:39;;;;;;;4.15;2.30;;;25.80;88.50;;;;;;5060285;28;20018;-58
2022/09/13 10:14:05;;;;;;;5.70;2.83;;;26.00;87.90;;;;;;5050576;28;20116;-59
2022/09/13 10:16:31;;;;;;;3.03;2.53;;;26.20;86.40;;;;;;5052429;28;20108;-58
2022/09/13 10:19:23;;;;;;;5.07;2.20;;;26.40;85.30;;;;;;5050612;28;20024;-58
2022/09/13 10:22:10;;;;;;;3.15;1.80;;;26.50;84.40;;;;;;5034620;28;20033;-59
2022/09/13 10:24:35;;;;;;;2.13;1.90;;;26.40;84.40;;;;;;5050818;28;20017;-58
2022/09/13 10:27:03;;;;;;;2.65;1.95;;;26.50;84.60;;;;;;5050500;28;20018;-58
2022/09/13 10:29:34;;;;;;;4.43;2.40;;;26.70;84.30;;;;;;5043740;28;20543;-58
2022/09/13 10:32:07;;;;;;;3.45;2.45;;;26.90;83.90;;;;;;5052203;28;20378;-58
2022/09/13 10:34:44;;;;;;;2.88;2.03;;;27.10;83.00;;;;;;5053684;28;20103;-58
2022/09/13 10:37:20;;;;;;;2.28;1.60;;;27.40;82.40;;;;;;5034618;28;20092;-58
2022/09/13 10:40:03;;;;;;;2.22;1.52;;;27.80;81.80;;;;;;5048231;28;20486;-58
2022/09/13 10:42:30;;;;;;;2.38;1.40;;;28.10;80.60;;;;;;5053551;28;20029;-59
2022/09/13 10:45:05;;;;;;;2.35;1.50;;;28.40;80.60;;;;;;5051749;28;20035;-59
2022/09/13 10:47:43;;;;;;;2.22;1.90;;;28.80;79.10;;;;;;5045473;28;20017;-59
2022/09/13 10:50:17;;;;;;;4.28;2.63;;;29.30;78.10;;;;;;5039164;28;20028;-59
2022/09/13 10:52:45;;;;;;;2.28;1.60;;;29.40;75.00;;;;;;5048869;28;20052;-59
2022/09/13 10:55:34;;;;;;;3.22;1.60;;;29.50;74.90;;;;;;5041659;28;20049;-58
2022/09/13 10:58:25;;;;;;;1.98;1.55;;;29.60;74.20;;;;;;5043504;28;20029;-58
2022/09/13 11:01:17;;;;;;;2.78;1.60;;;29.30;74.20;;;;;;5041065;28;20036;-59
2022/09/13 11:04:16;;;;;;;3.20;1.60;;;29.00;74.40;;;;;;5038968;28;20029;-58
2022/09/13 11:07:14;;;;;;;3.63;2.47;;;28.80;74.80;;;;;;5043626;28;20056;-59
2022/09/13 11:10:01;;;;;;;3.75;2.20;;;28.60;74.80;;;;;;5032580;28;20713;-58
2022/09/13 11:12:56;;;;;;;2.35;2.03;;;28.30;75.20;;;;;;5050287;28;20025;-59
2022/09/13 11:15:31;;;;;;;2.72;1.80;;;28.10;75.50;;;;;;5040319;28;20021;-59
2022/09/13 11:18:21;;;;;;;2.58;2.00;;;28.00;75.90;;;;;;5051317;28;20467;-58
2022/09/13 11:21:02;;;;;;;2.63;1.60;;;28.00;75.90;;;;;;5052859;28;20484;-59
2022/09/13 11:23:52;;;;;;;2.10;1.48;;;28.00;75.60;;;;;;5044621;28;20108;-59
2022/09/13 11:26:40;;;;;;;2.35;1.75;;;28.00;75.40;;;;;;5049577;28;20028;-59
2022/09/13 11:29:19;;;;;;;2.97;1.53;;;28.20;74.80;;;;;;5046638;28;20022;-59
2022/09/13 11:32:33;;;;;;;2.53;1.13;;;29.10;73.60;;;;;;5045279;28;20032;-59
2022/09/13 11:35:27;;;;;;;1.98;1.00;;;29.80;71.00;;;;;;5033742;28;20142;-59
2022/09/13 11:38:25;;;;;;;2.35;0.93;;;31.10;68.70;;;;;;5007815;28;20599;-59
2022/09/13 11:41:12;;;;;;;2.10;1.02;;;31.70;67.30;;;;;;5039307;28;20037;-59
2022/09/13 11:44:02;;;;;;;0.97;0.70;;;32.20;65.10;;;;;;5045860;28;20029;-59
2022/09/13 11:46:38;;;;;;;1.40;0.73;;;32.60;64.00;;;;;;5035562;28;20026;-59
2022/09/13 11:49:47;;;;;;;1.25;0.70;;;32.30;63.10;;;;;;5045533;28;20156;-59
2022/09/13 11:52:15;;;;;;;2.67;0.80;;;32.00;63.60;;;;;;5034791;28;20044;-59
2022/09/13 11:54:58;;;;;;;1.70;0.63;;;31.60;64.20;;;;;;5047816;28;20059;-59
2022/09/13 11:57:35;;;;;;;1.55;0.60;;;31.80;64.20;;;;;;5045985;28;20032;-59
2022/09/13 12:00:04;;;;;;;1.88;0.80;;;33.00;63.20;;;;;;5045233;28;20036;-59
2022/09/13 12:02:39;;;;;;;3.28;0.80;;;34.50;59.90;;;;;;5051574;28;20036;-59
2022/09/13 12:05:15;;;;;;;2.38;1.10;;;34.70;58.10;;;;;;5050140;28;20036;-59
2022/09/13 12:07:47;;;;;;;1.90;0.80;;;34.20;57.80;;;;;;5052590;28;20465;-59
2022/09/13 12:10:20;;;;;;;1.88;0.70;;;33.50;58.40;;;;;;5045286;28;20067;-59
2022/09/13 12:12:49;;;;;;;1.20;0.65;;;32.90;59.10;;;;;;5039542;28;20044;-59
2022/09/13 12:15:21;;;;;;;1.38;0.75;;;32.80;59.40;;;;;;5050901;28;20025;-59
2022/09/13 12:17:55;;;;;;;0.98;0.70;;;33.20;59.30;;;;;;5048001;28;20025;-59
2022/09/13 12:20:40;;;;;;;0.90;0.50;;;34.90;57.00;;;;;;5050979;28;20120;-59
2022/09/13 12:23:18;;;;;;;0.75;0.50;;;37.20;54.90;;;;;;5048904;28;20100;-59
2022/09/13 12:25:54;;;;;;;0.88;0.50;;;39.30;50.70;;;;;;5048021;28;20116;-59
2022/09/13 12:28:32;;;;;;;1.48;0.43;;;40.50;48.30;;;;;;5049752;28;20025;-59
2022/09/13 12:31:03;;;;;;;0.90;0.50;;;41.40;46.80;;;;;;5049399;28;20029;-60
2022/09/13 12:33:29;;;;;;;0.80;0.50;;;41.90;45.50;;;;;;5063078;28;20021;-60
2022/09/13 12:36:06;;;;;;;1.25;0.55;;;41.50;44.40;;;;;;5046926;28;20044;-59
2022/09/13 12:39:20;;;;;;;0.80;0.50;;;40.60;44.70;;;;;;5046863;28;20048;-60
2022/09/13 12:42:08;;;;;;;2.95;0.50;;;39.00;46.20;;;;;;4999918;28;20041;-59
2022/09/13 12:45:03;;;;;;;1.33;0.52;;;37.70;47.90;;;;;;5048503;28;20036;-60
2022/09/13 12:47:38;;;;;;;1.42;0.50;;;36.60;49.10;;;;;;5044884;28;20036;-59
2022/09/13 12:50:43;;;;;;;0.85;0.47;;;36.10;49.70;;;;;;5039121;28;20392;-60
2022/09/13 12:53:42;;;;;;;1.40;0.60;;;35.70;50.30;;;;;;5050817;28;20108;-59
2022/09/13 12:56:43;;;;;;;1.95;0.50;;;35.40;50.80;;;;;;5047374;28;20095;-60
2022/09/13 12:59:50;;;;;;;0.60;0.38;;;36.40;50.30;;;;;;5048959;28;20029;-59
2022/09/13 13:02:26;;;;;;;0.60;0.40;;;38.00;48.50;;;;;;5011138;28;20037;-59
2022/09/13 13:04:59;;;;;;;1.30;0.50;;;38.90;46.90;;;;;;5050666;28;20018;-59
2022/09/13 13:07:35;;;;;;;1.00;0.40;;;39.20;45.20;;;;;;5042165;28;20044;-60
2022/09/13 13:10:01;;;;;;;1.52;0.47;;;39.40;45.50;;;;;;5043828;28;20025;-60
2022/09/13 13:12:33;;;;;;;0.70;0.50;;;39.70;45.40;;;;;;5048558;28;20017;-60
2022/09/13 13:15:16;;;;;;;1.20;0.60;;;40.00;44.50;;;;;;5048679;28;20111;-59
2022/09/13 13:17:56;;;;;;;0.50;0.43;;;40.00;44.10;;;;;;5041875;28;20021;-60
2022/09/13 13:20:40;;;;;;;1.10;0.50;;;39.90;44.20;;;;;;5047721;28;20123;-59
2022/09/13 13:23:22;;;;;;;1.17;0.55;;;39.90;44.20;;;;;;5044293;28;20067;-59
2022/09/13 13:26:25;;;;;;;0.50;0.43;;;39.90;44.20;;;;;;5049466;28;20024;-59
2022/09/13 13:29:02;;;;;;;1.15;0.55;;;39.80;44.30;;;;;;5051267;28;20527;-59
2022/09/13 13:31:55;;;;;;;0.63;0.50;;;39.70;44.00;;;;;;5055243;28;20025;-59
2022/09/13 13:34:43;;;;;;;1.02;0.50;;;38.80;42.90;;;;;;5048428;28;20060;-60